createdAt,value
2018-07-28T00:01:36.720Z,6.13
2018-07-28T00:04:05.180Z,6.50
2018-07-28T00:06:33.607Z,6.70
2018-07-28T00:09:02.124Z,6.50
2018-07-28T00:11:30.636Z,6.57
2018-07-28T00:13:59.283Z,6.70
2018-07-28T00:16:27.842Z,6.40
2018-07-28T00:18:56.296Z,7.03
2018-07-28T00:21:24.772Z,6.17
2018-07-28T00:23:53.191Z,6.30
2018-07-28T00:26:21.647Z,6.07
2018-07-28T00:28:50.637Z,7.40
2018-07-28T00:31:19.089Z,6.93
2018-07-28T00:33:47.927Z,5.80
2018-07-28T00:36:16.342Z,6.53
2018-07-28T00:38:44.788Z,6.80
2018-07-28T00:41:13.236Z,6.63
2018-07-28T00:43:41.651Z,7.30
2018-07-28T00:46:10.119Z,7.90
2018-07-28T00:48:38.544Z,6.80
2018-07-28T00:51:06.993Z,6.90
2018-07-28T00:53:35.451Z,7.00
2018-07-28T00:56:03.903Z,7.40
2018-07-28T00:58:32.343Z,6.73
2018-07-28T01:01:00.795Z,7.13
2018-07-28T01:03:29.276Z,7.10
2018-07-28T01:05:57.722Z,8.00
2018-07-28T01:08:26.167Z,7.40
2018-07-28T01:10:54.583Z,6.73
2018-07-28T01:13:23.029Z,7.10
2018-07-28T01:15:51.481Z,7.80
2018-07-28T01:18:19.934Z,8.03
2018-07-28T01:20:48.398Z,7.80
2018-07-28T01:23:16.862Z,8.13
2018-07-28T01:25:45.271Z,6.93
2018-07-28T01:28:14.260Z,8.00
2018-07-28T01:30:42.748Z,7.50
2018-07-28T01:33:11.242Z,7.70
2018-07-28T01:35:39.691Z,7.43
2018-07-28T01:38:08.185Z,8.10
2018-07-28T01:40:36.731Z,8.00
2018-07-28T01:43:05.182Z,8.30
2018-07-28T01:45:33.651Z,8.03
2018-07-28T01:48:02.174Z,7.30
2018-07-28T01:50:30.622Z,7.40
2018-07-28T01:52:59.067Z,8.10
2018-07-28T01:55:27.505Z,7.60
2018-07-28T01:57:55.986Z,8.20
2018-07-28T02:00:24.484Z,6.43
2018-07-28T02:02:52.954Z,8.07
2018-07-28T02:05:21.529Z,8.70
2018-07-28T02:07:50.055Z,8.50
2018-07-28T02:10:18.499Z,8.30
2018-07-28T02:12:46.943Z,7.87
2018-07-28T02:15:15.381Z,8.90
2018-07-28T02:17:43.869Z,8.57
2018-07-28T02:20:12.322Z,7.90
2018-07-28T02:22:40.833Z,8.40
2018-07-28T02:25:10.457Z,7.93
2018-07-28T02:27:38.932Z,7.73
2018-07-28T02:30:07.900Z,8.47
2018-07-28T02:32:36.799Z,8.40
2018-07-28T02:35:06.519Z,8.70
2018-07-28T02:37:35.099Z,7.87
2018-07-28T02:40:03.624Z,8.23
2018-07-28T02:42:32.073Z,7.90
2018-07-28T02:45:00.516Z,8.40
2018-07-28T02:47:28.955Z,7.90
2018-07-28T02:49:57.383Z,8.17
2018-07-28T02:52:25.846Z,7.73
2018-07-28T02:54:54.296Z,7.10
2018-07-28T02:57:22.734Z,8.40
2018-07-28T02:59:51.494Z,7.20
2018-07-28T03:02:20.007Z,8.40
2018-07-28T03:04:48.444Z,8.33
2018-07-28T03:07:16.897Z,7.40
2018-07-28T03:09:45.320Z,8.00
2018-07-28T03:12:13.796Z,7.03
2018-07-28T03:14:42.223Z,7.17
2018-07-28T03:17:10.676Z,7.10
2018-07-28T03:19:39.090Z,7.93
2018-07-28T03:22:08.036Z,7.70
2018-07-28T03:24:36.480Z,7.90
2018-07-28T03:27:05.689Z,8.20
2018-07-28T03:29:34.511Z,7.80
2018-07-28T03:32:02.944Z,8.03
2018-07-28T03:34:31.396Z,8.10
2018-07-28T03:36:59.805Z,8.13
2018-07-28T03:39:28.254Z,8.57
2018-07-28T03:41:56.677Z,8.27
2018-07-28T03:44:25.140Z,8.20
2018-07-28T03:46:53.744Z,8.60
2018-07-28T03:49:22.286Z,7.70
2018-07-28T03:51:50.894Z,7.80
2018-07-28T03:54:19.347Z,7.93
2018-07-28T03:56:47.768Z,8.40
2018-07-28T03:59:16.248Z,7.67
2018-07-28T04:01:44.731Z,8.20
2018-07-28T04:04:13.240Z,7.93
2018-07-28T04:06:41.638Z,7.50
2018-07-28T04:09:10.565Z,8.47
2018-07-28T04:11:39.025Z,8.57
2018-07-28T04:14:07.453Z,7.87
2018-07-28T04:16:35.580Z,7.47
2018-07-28T04:19:04.037Z,8.10
2018-07-28T04:21:32.503Z,7.40
2018-07-28T04:24:00.954Z,8.17
2018-07-28T04:26:29.431Z,7.83
2018-07-28T04:28:57.851Z,8.27
2018-07-28T04:31:26.386Z,8.03
2018-07-28T04:33:54.810Z,7.13
2018-07-28T04:36:23.248Z,7.33
2018-07-28T04:38:51.668Z,7.73
2018-07-28T04:41:20.106Z,8.13
2018-07-28T04:43:48.583Z,7.50
2018-07-28T04:46:17.014Z,9.20
2018-07-28T04:48:45.467Z,8.60
2018-07-28T04:51:13.581Z,8.80
2018-07-28T04:53:42.043Z,8.93
2018-07-28T04:56:10.472Z,9.50
2018-07-28T04:58:38.930Z,8.20
2018-07-28T05:01:07.497Z,7.77
2018-07-28T05:03:35.936Z,7.87
2018-07-28T05:06:04.360Z,8.67
2018-07-28T05:08:32.847Z,8.40
2018-07-28T05:11:01.305Z,8.37
2018-07-28T05:13:29.826Z,8.63
2018-07-28T05:15:58.318Z,7.90
2018-07-28T05:18:26.732Z,7.97
2018-07-28T05:20:55.186Z,7.77
2018-07-28T05:23:23.628Z,7.70
2018-07-28T05:25:52.095Z,8.30
2018-07-28T05:28:20.579Z,7.83
2018-07-28T05:30:49.020Z,8.07
2018-07-28T05:33:17.467Z,9.23
2018-07-28T05:35:45.993Z,8.03
2018-07-28T05:38:14.474Z,8.57
2018-07-28T05:40:42.925Z,8.07
2018-07-28T05:43:11.461Z,8.80
2018-07-28T05:45:39.896Z,8.17
2018-07-28T05:48:08.456Z,8.47
2018-07-28T05:50:36.925Z,8.20
2018-07-28T05:53:05.776Z,7.80
2018-07-28T05:55:34.313Z,8.80
2018-07-28T05:58:02.736Z,8.70
2018-07-28T06:00:31.520Z,8.73
2018-07-28T06:03:04.167Z,9.77
2018-07-28T06:05:33.463Z,8.70
2018-07-28T06:08:01.919Z,9.47
2018-07-28T06:10:30.599Z,9.53
2018-07-28T06:12:59.050Z,8.70
2018-07-28T06:15:27.495Z,9.03
2018-07-28T06:17:56.320Z,8.50
2018-07-28T06:20:25.084Z,8.77
2018-07-28T06:22:53.706Z,8.80
2018-07-28T06:25:22.191Z,7.80
2018-07-28T06:27:50.734Z,8.47
2018-07-28T06:30:19.191Z,7.63
2018-07-28T06:32:47.615Z,8.03
2018-07-28T06:35:16.052Z,8.60
2018-07-28T06:37:44.541Z,8.43
2018-07-28T06:40:13.043Z,8.63
2018-07-28T06:42:41.496Z,7.50
2018-07-28T06:45:09.915Z,7.33
2018-07-28T06:47:38.347Z,8.17
2018-07-28T06:50:06.798Z,8.87
2018-07-28T06:52:34.904Z,8.00
2018-07-28T06:55:03.429Z,7.97
2018-07-28T06:57:31.871Z,8.30
2018-07-28T07:00:00.362Z,8.63
2018-07-28T07:02:28.928Z,8.17
2018-07-28T07:04:57.428Z,7.93
2018-07-28T07:07:25.871Z,9.27
2018-07-28T07:09:54.319Z,9.07
2018-07-28T07:12:22.864Z,9.00
2018-07-28T07:14:51.365Z,8.17
2018-07-28T07:17:19.811Z,9.70
2018-07-28T07:19:48.262Z,9.20
2018-07-28T07:22:16.783Z,9.07
2018-07-28T07:24:45.293Z,8.40
2018-07-28T07:27:13.751Z,8.37
2018-07-28T07:29:42.226Z,9.00
2018-07-28T07:32:10.673Z,7.90
2018-07-28T07:34:39.113Z,8.17
2018-07-28T07:37:07.613Z,7.47
2018-07-28T07:39:36.198Z,7.63
2018-07-28T07:42:04.748Z,7.17
2018-07-28T07:44:33.242Z,7.10
2018-07-28T07:47:01.847Z,6.80
2018-07-28T07:49:30.296Z,6.80
2018-07-28T07:51:58.743Z,7.10
2018-07-28T07:54:27.191Z,6.63
2018-07-28T07:56:55.695Z,7.50
2018-07-28T07:59:24.182Z,7.07
2018-07-28T08:01:52.614Z,6.63
2018-07-28T08:04:21.169Z,6.67
2018-07-28T08:06:49.879Z,7.00
2018-07-28T08:09:18.063Z,6.90
2018-07-28T08:11:46.604Z,7.50
2018-07-28T08:14:15.053Z,6.77
2018-07-28T08:16:43.486Z,7.30
2018-07-28T08:19:11.951Z,6.20
2018-07-28T08:21:40.429Z,6.40
2018-07-28T08:24:09.068Z,7.37
2018-07-28T08:26:37.518Z,9.40
2018-07-28T08:29:05.936Z,8.10
2018-07-28T08:31:34.374Z,8.67
2018-07-28T08:34:02.837Z,9.53
2018-07-28T08:36:32.730Z,9.17
2018-07-28T08:39:01.164Z,9.83
2018-07-28T08:41:29.708Z,9.60
2018-07-28T08:43:58.159Z,8.83
2018-07-28T08:46:26.639Z,8.47
2018-07-28T08:48:55.104Z,8.87
2018-07-28T08:51:23.486Z,9.83
2018-07-28T08:53:51.954Z,10.73
2018-07-28T08:56:20.393Z,9.40
2018-07-28T08:58:48.873Z,9.87
2018-07-28T09:01:17.436Z,10.10
2018-07-28T09:03:45.930Z,10.80
2018-07-28T09:06:14.371Z,10.73
2018-07-28T09:08:42.894Z,9.87
2018-07-28T09:11:11.339Z,9.70
2018-07-28T09:13:40.663Z,8.80
2018-07-28T09:16:09.077Z,9.13
2018-07-28T09:18:37.835Z,8.60
2018-07-28T09:21:06.462Z,7.80
2018-07-28T09:23:34.963Z,8.10
2018-07-28T09:26:03.427Z,9.20
2018-07-28T09:28:31.896Z,7.40
2018-07-28T09:31:00.345Z,9.00
2018-07-28T09:33:28.894Z,8.90
2018-07-28T09:35:57.317Z,8.10
2018-07-28T09:38:25.736Z,8.60
2018-07-28T09:40:54.218Z,6.17
2018-07-28T09:43:23.015Z,8.63
2018-07-28T09:45:51.478Z,9.57
2018-07-28T09:48:19.893Z,6.53
2018-07-28T09:50:48.419Z,7.50
2018-07-28T09:53:16.941Z,5.17
2018-07-28T09:55:45.455Z,7.10
2018-07-28T09:58:14.727Z,5.83
2018-07-28T10:00:48.642Z,6.10
2018-07-28T10:03:17.299Z,7.63
2018-07-28T10:05:46.019Z,7.00
2018-07-28T10:08:14.531Z,8.10
2018-07-28T10:10:42.988Z,7.00
2018-07-28T10:13:11.532Z,6.53
2018-07-28T10:15:40.034Z,6.37
2018-07-28T10:18:08.621Z,6.53
2018-07-28T10:20:36.742Z,6.80
2018-07-28T10:23:05.491Z,7.43
2018-07-28T10:25:33.925Z,6.97
2018-07-28T10:28:02.475Z,6.60
2018-07-28T10:30:30.988Z,6.00
2018-07-28T10:32:59.547Z,6.10
2018-07-28T10:35:27.963Z,5.83
2018-07-28T10:37:56.483Z,6.20
2018-07-28T10:40:24.888Z,5.90
2018-07-28T10:42:53.420Z,3.73
2018-07-28T10:45:21.880Z,4.00
2018-07-28T10:47:50.338Z,4.40
2018-07-28T10:50:18.754Z,4.30
2018-07-28T10:52:46.939Z,4.27
2018-07-28T10:55:15.452Z,3.97
2018-07-28T10:57:44.000Z,3.70
2018-07-28T11:00:12.706Z,4.10
2018-07-28T11:02:41.162Z,2.90
2018-07-28T11:05:09.645Z,4.30
2018-07-28T11:07:38.118Z,4.00
2018-07-28T11:10:08.028Z,3.87
2018-07-28T11:12:36.504Z,4.17
2018-07-28T11:15:06.412Z,4.53
2018-07-28T11:17:34.840Z,3.83
2018-07-28T11:20:03.317Z,4.07
2018-07-28T11:22:31.757Z,4.20
2018-07-28T11:25:00.215Z,3.33
2018-07-28T11:27:28.760Z,4.03
2018-07-28T11:29:57.251Z,3.97
2018-07-28T11:32:36.989Z,4.30
2018-07-28T11:35:16.559Z,5.43
2018-07-28T11:38:01.954Z,4.83
2018-07-28T11:40:43.240Z,5.43
2018-07-28T11:43:23.087Z,4.20
2018-07-28T11:45:51.569Z,3.40
2018-07-28T11:48:20.072Z,5.00
2018-07-28T11:50:48.664Z,4.77
2018-07-28T11:53:17.219Z,6.00
2018-07-28T11:55:45.732Z,5.20
2018-07-28T11:58:14.212Z,5.80
2018-07-28T12:00:42.648Z,5.73
2018-07-28T12:03:11.125Z,5.37
2018-07-28T12:05:39.543Z,5.90
2018-07-28T12:08:07.992Z,5.40
2018-07-28T12:10:36.851Z,5.23
2018-07-28T12:13:05.292Z,5.73
2018-07-28T12:15:33.764Z,5.27
2018-07-28T12:18:02.210Z,6.03
2018-07-28T12:20:30.647Z,5.60
2018-07-28T12:22:59.155Z,5.70
2018-07-28T12:25:27.627Z,5.90
2018-07-28T12:27:56.087Z,4.77
2018-07-28T12:30:24.516Z,5.10
2018-07-28T12:32:52.963Z,5.07
2018-07-28T12:35:21.434Z,5.47
2018-07-28T12:37:50.010Z,5.53
2018-07-28T12:40:18.566Z,6.00
2018-07-28T12:42:47.021Z,6.20
2018-07-28T12:45:15.492Z,6.00
2018-07-28T12:47:43.918Z,5.53
2018-07-28T12:50:12.620Z,5.73
2018-07-28T12:52:41.055Z,5.70
2018-07-28T12:55:09.377Z,5.10
2018-07-28T12:57:37.851Z,5.50
2018-07-28T13:00:06.517Z,6.60
2018-07-28T13:02:35.032Z,6.03
2018-07-28T13:05:03.571Z,5.90
2018-07-28T13:07:32.139Z,7.20
2018-07-28T13:10:00.620Z,6.53
2018-07-28T13:12:29.171Z,6.23
2018-07-28T13:14:57.609Z,6.33
2018-07-28T13:17:26.185Z,6.70
2018-07-28T13:19:55.151Z,6.07
2018-07-28T13:22:23.883Z,6.53
2018-07-28T13:24:52.468Z,5.40
2018-07-28T13:27:20.942Z,5.57
2018-07-28T13:29:49.448Z,4.97
2018-07-28T13:32:17.924Z,4.90
2018-07-28T13:34:46.456Z,5.43
2018-07-28T13:37:15.002Z,5.87
2018-07-28T13:39:43.647Z,6.00
2018-07-28T13:42:12.201Z,5.53
2018-07-28T13:44:40.611Z,6.37
2018-07-28T13:47:09.099Z,6.00
2018-07-28T13:49:37.555Z,6.23
2018-07-28T13:52:06.219Z,6.60
2018-07-28T13:54:34.700Z,5.93
2018-07-28T13:57:03.228Z,6.07
2018-07-28T13:59:31.686Z,6.00
2018-07-28T14:02:00.184Z,6.47
2018-07-28T14:04:28.726Z,5.63
2018-07-28T14:06:57.200Z,5.40
2018-07-28T14:09:25.713Z,5.97
2018-07-28T14:11:54.176Z,5.23
2018-07-28T14:14:22.659Z,5.27
2018-07-28T14:16:51.128Z,4.63
2018-07-28T14:19:19.742Z,5.07
2018-07-28T14:21:48.227Z,5.60
2018-07-28T14:24:16.900Z,5.30
2018-07-28T14:26:45.364Z,5.73
2018-07-28T14:29:13.933Z,6.50
2018-07-28T14:31:42.372Z,5.70
2018-07-28T14:34:10.932Z,5.67
2018-07-28T14:36:39.398Z,5.70
2018-07-28T14:39:09.199Z,6.33
2018-07-28T14:41:38.206Z,6.00
2018-07-28T14:44:06.675Z,6.00
2018-07-28T14:46:35.112Z,5.97
2018-07-28T14:49:03.710Z,5.53
2018-07-28T14:51:32.151Z,6.20
2018-07-28T14:54:00.689Z,5.70
2018-07-28T14:56:29.147Z,5.60
2018-07-28T14:58:57.604Z,5.80
2018-07-28T15:01:26.093Z,5.70
2018-07-28T15:03:54.726Z,5.57
2018-07-28T15:06:23.439Z,5.80
2018-07-28T15:08:51.605Z,6.20
2018-07-28T15:11:20.033Z,6.37
2018-07-28T15:13:48.541Z,5.37
2018-07-28T15:16:17.012Z,4.20
2018-07-28T15:18:45.627Z,6.03
2018-07-28T15:21:14.064Z,5.77
2018-07-28T15:23:42.531Z,6.87
2018-07-28T15:26:11.256Z,6.40
2018-07-28T15:28:39.730Z,6.00
2018-07-28T15:31:08.172Z,6.10
2018-07-28T15:33:36.823Z,5.40
2018-07-28T15:36:05.596Z,5.20
2018-07-28T15:38:34.028Z,7.67
2018-07-28T15:41:02.523Z,6.17
2018-07-28T15:43:30.956Z,6.13
2018-07-28T15:45:59.470Z,5.83
2018-07-28T15:48:27.912Z,5.97
2018-07-28T15:50:56.385Z,6.40
2018-07-28T15:53:24.929Z,6.53
2018-07-28T15:55:53.400Z,6.33
2018-07-28T15:58:21.927Z,6.07
2018-07-28T16:00:50.580Z,6.43
2018-07-28T16:03:19.113Z,6.53
2018-07-28T16:05:47.583Z,6.87
2018-07-28T16:08:16.169Z,6.17
2018-07-28T16:10:45.084Z,5.53
2018-07-28T16:13:13.540Z,6.00
2018-07-28T16:15:41.993Z,5.80
2018-07-28T16:18:10.488Z,6.40
2018-07-28T16:20:38.941Z,7.33
2018-07-28T16:23:10.708Z,6.67
2018-07-28T16:25:39.221Z,6.60
2018-07-28T16:28:07.866Z,7.40
2018-07-28T16:30:36.300Z,6.33
2018-07-28T16:33:04.762Z,6.73
2018-07-28T16:35:33.235Z,5.00
2018-07-28T16:38:01.821Z,7.00
2018-07-28T16:40:30.340Z,5.60
2018-07-28T16:42:58.800Z,6.97
2018-07-28T16:45:28.214Z,7.90
2018-07-28T16:47:56.643Z,8.10
2018-07-28T16:50:25.187Z,5.80
2018-07-28T16:52:53.678Z,6.87
2018-07-28T16:55:22.145Z,7.10
2018-07-28T16:57:50.636Z,7.40
2018-07-28T17:00:19.326Z,5.53
2018-07-28T17:02:47.767Z,7.70
2018-07-28T17:05:16.388Z,6.40
2018-07-28T17:07:44.932Z,6.40
2018-07-28T17:10:13.452Z,6.20
2018-07-28T17:12:41.921Z,7.07
2018-07-28T17:15:11.225Z,7.53
2018-07-28T17:17:39.811Z,7.27
2018-07-28T17:20:08.906Z,6.07
2018-07-28T17:22:37.445Z,7.00
2018-07-28T17:25:05.893Z,7.70
2018-07-28T17:27:34.683Z,8.33
2018-07-28T17:30:03.131Z,7.73
2018-07-28T17:32:31.580Z,5.50
2018-07-28T17:34:59.996Z,7.67
2018-07-28T17:37:28.693Z,7.27
2018-07-28T17:39:57.382Z,7.00
2018-07-28T17:42:25.895Z,6.43
2018-07-28T17:44:54.458Z,7.40
2018-07-28T17:47:22.958Z,8.43
2018-07-28T17:49:51.512Z,6.73
2018-07-28T17:52:20.039Z,7.67
2018-07-28T17:54:48.503Z,7.67
2018-07-28T17:57:16.993Z,8.03
2018-07-28T17:59:45.584Z,9.03
2018-07-28T18:02:14.095Z,7.00
2018-07-28T18:04:42.629Z,5.80
2018-07-28T18:07:11.141Z,7.50
2018-07-28T18:09:39.644Z,7.63
2018-07-28T18:12:07.783Z,7.33
2018-07-28T18:14:36.231Z,6.83
2018-07-28T18:17:04.761Z,7.20
2018-07-28T18:19:33.308Z,7.67
2018-07-28T18:22:01.745Z,7.50
2018-07-28T18:24:29.909Z,7.57
2018-07-28T18:26:58.568Z,7.83
2018-07-28T18:29:27.011Z,7.17
2018-07-28T18:31:55.472Z,8.43
2018-07-28T18:34:24.072Z,8.33
2018-07-28T18:36:52.526Z,7.70
2018-07-28T18:39:20.992Z,8.20
2018-07-28T18:41:49.535Z,6.60
2018-07-28T18:44:18.063Z,9.17
2018-07-28T18:46:46.478Z,7.70
2018-07-28T18:49:14.993Z,6.80
2018-07-28T18:51:43.540Z,8.03
2018-07-28T18:54:11.999Z,7.33
2018-07-28T18:56:40.491Z,7.63
2018-07-28T18:59:09.160Z,6.97
2018-07-28T19:01:37.682Z,8.07
2018-07-28T19:04:06.520Z,7.20
2018-07-28T19:06:34.960Z,7.37
2018-07-28T19:09:08.777Z,7.80
2018-07-28T19:11:37.238Z,7.53
2018-07-28T19:14:11.087Z,7.57
2018-07-28T19:16:39.206Z,8.47
2018-07-28T19:19:13.885Z,7.50
2018-07-28T19:21:43.239Z,7.80
2018-07-28T19:24:11.711Z,7.37
2018-07-28T19:26:40.137Z,7.50
2018-07-28T19:29:13.979Z,8.73
2018-07-28T19:31:42.504Z,7.50
2018-07-28T19:34:10.967Z,7.00
2018-07-28T19:36:44.847Z,7.73
2018-07-28T19:39:13.336Z,8.00
2018-07-28T19:41:47.288Z,7.53
2018-07-28T19:44:15.735Z,8.10
2018-07-28T19:46:44.206Z,8.00
2018-07-28T19:49:12.672Z,8.90
2018-07-28T19:51:41.309Z,9.33
2018-07-28T19:54:09.798Z,7.20
2018-07-28T19:56:38.329Z,7.33
2018-07-28T19:59:06.768Z,7.10
2018-07-28T20:01:35.265Z,6.53
2018-07-28T20:04:03.786Z,7.80
2018-07-28T20:06:32.508Z,8.13
2018-07-28T20:09:01.029Z,7.67
2018-07-28T20:11:29.596Z,7.60
2018-07-28T20:13:58.098Z,7.30
2018-07-28T20:16:26.530Z,7.60
2018-07-28T20:18:55.115Z,7.00
2018-07-28T20:21:23.618Z,7.47
2018-07-28T20:23:52.083Z,8.10
2018-07-28T20:26:20.624Z,8.23
2018-07-28T20:28:49.231Z,7.70
2018-07-28T20:31:17.340Z,8.10
2018-07-28T20:33:45.841Z,8.17
2018-07-28T20:36:14.332Z,7.93
2018-07-28T20:38:42.931Z,8.20
2018-07-28T20:41:11.429Z,7.50
2018-07-28T20:43:39.658Z,7.80
2018-07-28T20:46:08.104Z,8.30
2018-07-28T20:48:36.578Z,7.43
2018-07-28T20:51:05.040Z,8.43
2018-07-28T20:53:33.597Z,8.10
2018-07-28T20:56:05.973Z,10.67
2018-07-28T20:58:34.984Z,8.77
2018-07-28T21:01:04.085Z,8.03
2018-07-28T21:03:32.594Z,8.73
2018-07-28T21:06:01.048Z,8.90
2018-07-28T21:08:29.904Z,8.13
2018-07-28T21:10:58.757Z,8.60
2018-07-28T21:13:27.261Z,7.83
2018-07-28T21:15:56.220Z,8.17
2018-07-28T21:18:25.989Z,10.30
2018-07-28T21:20:54.548Z,8.33
2018-07-28T21:23:23.135Z,8.80
2018-07-28T21:25:51.612Z,8.90
2018-07-28T21:28:20.048Z,7.70
2018-07-28T21:30:48.579Z,8.07
2018-07-28T21:33:17.168Z,8.30
2018-07-28T21:35:45.716Z,8.70
2018-07-28T21:38:14.320Z,8.53
2018-07-28T21:40:42.919Z,8.37
2018-07-28T21:43:11.540Z,8.37
2018-07-28T21:45:40.300Z,8.90
2018-07-28T21:48:08.840Z,8.80
2018-07-28T21:50:37.333Z,9.00
2018-07-28T21:53:06.245Z,8.00
2018-07-28T21:55:34.679Z,9.20
2018-07-28T21:58:03.409Z,7.57
2018-07-28T22:01:38.464Z,8.97
2018-07-28T22:04:06.967Z,8.90
2018-07-28T22:06:35.566Z,9.07
2018-07-28T22:09:05.199Z,7.73
2018-07-28T22:11:33.724Z,7.93
2018-07-28T22:14:02.252Z,8.10
2018-07-28T22:16:30.799Z,7.83
2018-07-28T22:18:59.396Z,7.30
2018-07-28T22:21:27.886Z,8.43
2018-07-28T22:23:56.430Z,7.50
2018-07-28T22:26:24.991Z,7.83
2018-07-28T22:28:53.464Z,7.10
2018-07-28T22:31:22.081Z,6.30
2018-07-28T22:33:50.518Z,7.33
2018-07-28T22:36:18.985Z,8.07
2018-07-28T22:38:47.439Z,7.03
2018-07-28T22:41:15.865Z,7.57
2018-07-28T22:43:44.320Z,7.53
2018-07-28T22:46:12.795Z,7.93
2018-07-28T22:48:41.293Z,7.37
2018-07-28T22:51:09.717Z,6.33
2018-07-28T22:53:38.198Z,7.23
2018-07-28T22:56:06.647Z,7.27
2018-07-28T22:58:34.783Z,6.70
2018-07-28T23:01:03.240Z,6.63
2018-07-28T23:03:31.772Z,6.63
2018-07-28T23:06:00.203Z,6.70
2018-07-28T23:08:28.632Z,6.67
2018-07-28T23:10:57.196Z,6.60
2018-07-28T23:13:25.615Z,6.53
2018-07-28T23:15:54.058Z,6.63
2018-07-28T23:18:22.728Z,6.23
2018-07-28T23:20:51.171Z,6.43
2018-07-28T23:23:19.594Z,5.50
2018-07-28T23:25:48.062Z,5.70
2018-07-28T23:28:16.540Z,6.60
2018-07-28T23:30:44.983Z,5.83
2018-07-28T23:33:13.497Z,6.60
2018-07-28T23:35:41.988Z,6.60
2018-07-28T23:38:10.418Z,6.30
2018-07-28T23:40:38.887Z,6.33
2018-07-28T23:43:07.574Z,5.73
2018-07-28T23:45:36.112Z,6.00
2018-07-28T23:48:04.564Z,5.63
2018-07-28T23:50:33.018Z,5.80
2018-07-28T23:53:01.468Z,6.13
2018-07-28T23:55:30.031Z,5.50
2018-07-28T23:57:58.627Z,5.50
